createdAt,value
2023-02-14T00:00:48.831Z,19.20
2023-02-14T00:03:16.029Z,19.20
2023-02-14T00:05:43.727Z,19.20
2023-02-14T00:08:10.518Z,19.20
2023-02-14T00:10:37.336Z,19.20
2023-02-14T00:13:04.744Z,19.20
2023-02-14T00:15:31.545Z,19.20
2023-02-14T00:18:02.139Z,19.20
2023-02-14T00:20:29.281Z,19.20
2023-02-14T00:22:56.036Z,19.20
2023-02-14T00:25:22.841Z,19.20
2023-02-14T00:27:49.565Z,19.20
2023-02-14T00:30:16.464Z,19.20
2023-02-14T00:32:43.483Z,19.20
2023-02-14T00:35:10.993Z,19.20
2023-02-14T00:37:37.977Z,19.30
2023-02-14T00:40:06.491Z,19.20
2023-02-14T00:42:33.555Z,19.30
2023-02-14T00:45:00.393Z,19.20
2023-02-14T00:47:27.183Z,19.20
2023-02-14T00:49:54.002Z,19.20
2023-02-14T00:52:20.770Z,19.30
2023-02-14T00:54:47.569Z,19.20
2023-02-14T00:57:14.433Z,19.20
2023-02-14T00:59:41.145Z,19.30
2023-02-14T01:02:08.078Z,19.30
2023-02-14T01:04:34.946Z,19.20
2023-02-14T01:07:01.715Z,19.30
2023-02-14T01:09:28.682Z,19.20
2023-02-14T01:11:55.589Z,19.20
2023-02-14T01:14:22.360Z,19.20
2023-02-14T01:16:49.211Z,19.20
2023-02-14T01:19:16.014Z,19.20
2023-02-14T01:21:42.831Z,19.30
2023-02-14T01:24:10.445Z,19.20
2023-02-14T01:26:37.203Z,19.20
2023-02-14T01:29:05.354Z,19.20
2023-02-14T01:31:35.279Z,19.20
2023-02-14T01:34:02.580Z,19.20
2023-02-14T01:36:36.722Z,19.20
2023-02-14T01:39:07.356Z,19.20
2023-02-14T01:41:36.983Z,19.20
2023-02-14T01:44:15.723Z,19.20
2023-02-14T01:46:44.753Z,19.20
2023-02-14T01:49:30.839Z,19.20
2023-02-14T01:52:07.763Z,19.20
2023-02-14T01:54:38.134Z,19.10
2023-02-14T01:57:09.033Z,19.20
2023-02-14T01:59:41.600Z,19.10
2023-02-14T02:02:09.189Z,19.10
2023-02-14T02:04:41.331Z,19.10
2023-02-14T02:07:12.434Z,19.00
2023-02-14T02:09:52.207Z,19.00
2023-02-14T02:12:19.216Z,19.00
2023-02-14T02:14:47.741Z,18.90
2023-02-14T02:17:14.571Z,19.00
2023-02-14T02:20:13.225Z,19.00
2023-02-14T02:23:14.258Z,19.00
2023-02-14T02:26:05.020Z,19.10
2023-02-14T02:28:37.491Z,19.10
2023-02-14T02:31:13.307Z,19.10
2023-02-14T02:34:04.358Z,19.20
2023-02-14T02:37:08.790Z,19.20
2023-02-14T02:39:46.506Z,19.20
2023-02-14T02:42:30.152Z,19.20
2023-02-14T02:45:05.809Z,19.20
2023-02-14T02:47:44.408Z,19.20
2023-02-14T02:50:42.628Z,19.20
2023-02-14T02:53:23.956Z,19.20
2023-02-14T02:56:15.640Z,19.20
2023-02-14T02:58:48.839Z,19.30
2023-02-14T03:01:20.697Z,19.30
2023-02-14T03:04:11.959Z,19.30
2023-02-14T03:06:38.707Z,19.40
2023-02-14T03:09:31.982Z,19.40
2023-02-14T03:12:18.446Z,19.50
2023-02-14T03:14:56.862Z,19.50
2023-02-14T03:18:12.141Z,19.50
2023-02-14T03:20:52.313Z,19.60
2023-02-14T03:23:28.860Z,19.60
2023-02-14T03:26:16.948Z,19.60
2023-02-14T03:29:05.214Z,19.50
2023-02-14T03:31:46.878Z,19.50
2023-02-14T03:34:28.613Z,19.50
2023-02-14T03:37:27.566Z,19.50
2023-02-14T03:40:11.229Z,19.50
2023-02-14T03:42:50.401Z,19.50
2023-02-14T03:45:23.772Z,19.60
2023-02-14T03:47:52.580Z,19.60
2023-02-14T03:50:20.478Z,19.60
2023-02-14T03:52:51.690Z,19.60
2023-02-14T03:55:26.843Z,19.70
2023-02-14T03:58:10.684Z,19.70
2023-02-14T04:00:41.085Z,19.80
2023-02-14T04:03:12.077Z,19.80
2023-02-14T04:05:43.511Z,19.80
2023-02-14T04:08:11.186Z,19.80
2023-02-14T04:10:40.055Z,19.80
2023-02-14T04:13:06.828Z,19.70
2023-02-14T04:15:33.724Z,19.60
2023-02-14T04:18:18.955Z,19.50
2023-02-14T04:20:45.692Z,19.40
2023-02-14T04:23:12.444Z,19.40
2023-02-14T04:25:40.343Z,19.30
2023-02-14T04:28:07.076Z,19.20
2023-02-14T04:30:33.840Z,19.20
2023-02-14T04:33:00.600Z,19.20
2023-02-14T04:35:27.358Z,19.20
2023-02-14T04:37:54.088Z,19.20
2023-02-14T04:40:21.119Z,19.20
2023-02-14T04:42:48.160Z,19.30
2023-02-14T04:45:15.413Z,19.30
2023-02-14T04:47:42.229Z,19.30
2023-02-14T04:50:09.546Z,19.30
2023-02-14T04:52:36.258Z,19.30
2023-02-14T04:55:04.452Z,19.30
2023-02-14T04:57:31.482Z,19.30
2023-02-14T04:59:58.221Z,19.30
2023-02-14T05:02:25.162Z,19.30
2023-02-14T05:04:51.936Z,19.30
2023-02-14T05:07:18.692Z,19.30
2023-02-14T05:09:45.413Z,19.20
2023-02-14T05:12:12.278Z,19.10
2023-02-14T05:14:39.004Z,19.10
2023-02-14T05:17:05.769Z,19.10
2023-02-14T05:19:32.562Z,19.10
2023-02-14T05:21:59.289Z,19.10
2023-02-14T05:24:26.081Z,19.10
2023-02-14T05:26:52.938Z,19.10
2023-02-14T05:29:19.806Z,19.10
2023-02-14T05:31:46.665Z,19.10
2023-02-14T05:34:13.659Z,19.10
2023-02-14T05:36:40.474Z,19.10
2023-02-14T05:39:07.273Z,19.10
2023-02-14T05:41:34.082Z,19.10
2023-02-14T05:44:00.831Z,19.10
2023-02-14T05:46:27.667Z,19.10
2023-02-14T05:48:54.423Z,19.10
2023-02-14T05:51:21.205Z,19.10
2023-02-14T05:53:47.961Z,19.10
2023-02-14T05:56:14.792Z,19.00
2023-02-14T05:58:41.567Z,19.10
2023-02-14T06:01:08.431Z,19.00
2023-02-14T06:03:35.218Z,19.10
2023-02-14T06:06:01.965Z,19.10
2023-02-14T06:08:28.829Z,19.20
2023-02-14T06:10:55.619Z,19.20
2023-02-14T06:13:22.438Z,19.20
2023-02-14T06:15:49.205Z,19.20
2023-02-14T06:18:16.355Z,19.30
2023-02-14T06:20:43.739Z,19.30
2023-02-14T06:23:11.051Z,19.30
2023-02-14T06:25:37.856Z,19.40
2023-02-14T06:28:04.733Z,19.40
2023-02-14T06:30:31.596Z,19.40
2023-02-14T06:32:58.811Z,19.40
2023-02-14T06:35:25.618Z,19.30
2023-02-14T06:37:52.692Z,19.30
2023-02-14T06:40:19.721Z,19.30
2023-02-14T06:42:46.714Z,19.30
2023-02-14T06:45:14.274Z,19.30
2023-02-14T06:47:41.565Z,19.30
2023-02-14T06:50:11.523Z,19.30
2023-02-14T06:52:38.774Z,19.40
2023-02-14T06:55:06.358Z,19.30
2023-02-14T06:57:33.144Z,19.40
2023-02-14T07:00:00.924Z,19.40
2023-02-14T07:02:27.750Z,19.50
2023-02-14T07:04:54.612Z,19.50
2023-02-14T07:07:21.567Z,19.50
2023-02-14T07:09:52.387Z,19.50
2023-02-14T07:12:19.889Z,19.60
2023-02-14T07:14:48.136Z,19.50
2023-02-14T07:17:16.351Z,19.50
2023-02-14T07:19:43.133Z,19.50
2023-02-14T07:22:09.982Z,19.50
2023-02-14T07:24:37.729Z,19.50
2023-02-14T07:27:04.544Z,19.40
2023-02-14T07:29:31.470Z,19.40
2023-02-14T07:31:59.108Z,19.40
2023-02-14T07:34:27.305Z,19.40
2023-02-14T07:36:54.143Z,19.40
2023-02-14T07:39:21.921Z,19.40
2023-02-14T07:41:50.670Z,19.40
2023-02-14T07:44:17.504Z,19.40
2023-02-14T07:46:44.370Z,19.50
2023-02-14T07:49:11.451Z,19.50
2023-02-14T07:51:38.203Z,19.50
2023-02-14T07:54:05.646Z,19.50
2023-02-14T07:56:33.149Z,19.50
2023-02-14T07:59:00.528Z,19.50
2023-02-14T08:01:28.961Z,19.40
2023-02-14T08:03:58.037Z,19.40
2023-02-14T08:06:27.886Z,19.40
2023-02-14T08:08:55.000Z,19.30
2023-02-14T08:11:40.712Z,19.30
2023-02-14T08:14:08.844Z,19.30
2023-02-14T08:16:38.072Z,19.20
2023-02-14T08:19:04.844Z,19.20
2023-02-14T08:21:32.334Z,19.30
2023-02-14T08:23:59.251Z,19.30
2023-02-14T08:26:26.476Z,19.30
2023-02-14T08:28:53.440Z,19.30
2023-02-14T08:31:34.770Z,19.40
2023-02-14T08:34:02.305Z,19.40
2023-02-14T08:36:29.294Z,19.40
2023-02-14T08:38:57.649Z,19.40
2023-02-14T08:41:25.173Z,19.40
2023-02-14T08:43:52.722Z,19.30
2023-02-14T08:46:21.878Z,19.30
2023-02-14T08:48:53.439Z,19.20
2023-02-14T08:51:22.734Z,19.10
2023-02-14T08:53:50.989Z,19.10
2023-02-14T08:56:18.954Z,19.10
2023-02-14T08:58:45.861Z,19.10
2023-02-14T09:01:15.745Z,19.10
2023-02-14T09:03:43.449Z,19.10
2023-02-14T09:06:14.442Z,19.10
2023-02-14T09:08:41.269Z,19.10
2023-02-14T09:11:15.677Z,19.20
2023-02-14T09:13:43.495Z,19.10
2023-02-14T09:16:17.298Z,19.20
2023-02-14T09:18:45.538Z,19.10
2023-02-14T09:21:19.123Z,19.20
2023-02-14T09:23:46.036Z,19.10
2023-02-14T09:26:14.547Z,19.10
2023-02-14T09:28:41.551Z,19.10
2023-02-14T09:31:10.005Z,19.10
2023-02-14T09:33:55.661Z,19.10
2023-02-14T09:36:22.528Z,19.10
2023-02-14T09:38:49.350Z,19.10
2023-02-14T09:41:39.511Z,19.10
2023-02-14T09:44:20.451Z,19.10
2023-02-14T09:46:54.818Z,19.20
2023-02-14T09:49:36.989Z,19.20
2023-02-14T09:52:07.485Z,19.20
2023-02-14T09:54:35.940Z,19.20
2023-02-14T09:57:21.109Z,19.30
2023-02-14T09:59:57.421Z,19.30
2023-02-14T10:02:42.971Z,19.40
2023-02-14T10:05:15.549Z,19.30
2023-02-14T10:07:48.402Z,19.30
2023-02-14T10:10:22.323Z,19.30
2023-02-14T10:12:59.610Z,19.30
2023-02-14T10:15:32.023Z,19.30
2023-02-14T10:18:05.431Z,19.30
2023-02-14T10:20:49.686Z,19.30
2023-02-14T10:23:45.626Z,19.30
2023-02-14T10:26:27.683Z,19.20
2023-02-14T10:28:55.928Z,19.20
2023-02-14T10:31:22.941Z,19.20
2023-02-14T10:34:01.504Z,19.30
2023-02-14T10:36:53.143Z,19.30
2023-02-14T10:39:46.077Z,19.30
2023-02-14T10:42:35.146Z,19.40
2023-02-14T10:45:01.879Z,19.40
2023-02-14T10:47:59.394Z,19.40
2023-02-14T10:50:37.206Z,19.50
2023-02-14T10:53:18.904Z,19.50
2023-02-14T10:56:11.849Z,19.60
2023-02-14T10:58:42.783Z,19.60
2023-02-14T11:01:15.158Z,19.60
2023-02-14T11:03:58.542Z,19.70
2023-02-14T11:06:25.658Z,19.70
2023-02-14T11:08:52.714Z,19.80
2023-02-14T11:11:28.277Z,19.80
2023-02-14T11:13:55.363Z,19.80
2023-02-14T11:16:34.037Z,19.90
2023-02-14T11:19:14.926Z,19.90
2023-02-14T11:21:44.353Z,20.00
2023-02-14T11:24:27.461Z,20.00
2023-02-14T11:27:14.429Z,20.00
2023-02-14T11:29:41.187Z,20.10
2023-02-14T11:32:15.651Z,20.10
2023-02-14T11:34:48.176Z,20.10
2023-02-14T11:37:27.223Z,20.10
2023-02-14T11:39:56.132Z,20.20
2023-02-14T11:42:34.498Z,20.20
2023-02-14T11:45:01.739Z,20.30
2023-02-14T11:47:33.011Z,20.30
2023-02-14T11:50:12.636Z,20.30
2023-02-14T11:52:55.256Z,20.40
2023-02-14T11:55:34.137Z,20.40
2023-02-14T11:58:07.325Z,20.40
2023-02-14T12:00:38.111Z,20.50
2023-02-14T12:03:06.907Z,20.50
2023-02-14T12:05:35.128Z,20.50
2023-02-14T12:08:05.018Z,20.50
2023-02-14T12:10:35.201Z,20.50
2023-02-14T12:13:08.112Z,20.50
2023-02-14T12:15:44.019Z,20.50
2023-02-14T12:18:25.831Z,20.50
2023-02-14T12:21:30.667Z,20.50
2023-02-14T12:24:39.410Z,20.50
2023-02-14T12:27:27.213Z,20.50
2023-02-14T12:30:01.394Z,20.50
2023-02-14T12:32:31.316Z,20.50
2023-02-14T12:35:14.892Z,20.50
2023-02-14T12:38:12.098Z,20.50
2023-02-14T12:41:36.741Z,20.40
2023-02-14T12:44:47.702Z,20.50
2023-02-14T12:47:17.693Z,20.40
2023-02-14T12:49:53.470Z,20.40
2023-02-14T12:52:33.530Z,20.30
2023-02-14T12:55:45.995Z,20.30
2023-02-14T12:58:30.979Z,20.30
2023-02-14T13:01:13.222Z,20.20
2023-02-14T13:03:56.355Z,20.20
2023-02-14T13:06:34.246Z,20.20
2023-02-14T13:09:18.679Z,20.10
2023-02-14T13:12:03.929Z,20.10
2023-02-14T13:14:56.333Z,20.20
2023-02-14T13:17:23.393Z,20.20
2023-02-14T13:19:59.690Z,20.20
2023-02-14T13:22:27.373Z,20.20
2023-02-14T13:25:03.825Z,20.30
2023-02-14T13:27:37.208Z,20.30
2023-02-14T13:30:28.776Z,20.30
2023-02-14T13:32:59.025Z,20.40
2023-02-14T13:35:28.066Z,20.40
2023-02-14T13:38:05.137Z,20.40
2023-02-14T13:40:34.232Z,20.40
2023-02-14T13:43:02.122Z,20.40
2023-02-14T13:45:32.574Z,20.40
2023-02-14T13:48:12.104Z,20.40
2023-02-14T13:51:01.272Z,20.40
2023-02-14T13:53:33.602Z,20.40
2023-02-14T13:56:06.133Z,20.40
2023-02-14T13:58:34.526Z,20.40
2023-02-14T14:01:27.014Z,20.40
2023-02-14T14:03:58.390Z,20.40
2023-02-14T14:06:25.216Z,20.40
2023-02-14T14:08:56.093Z,20.40
2023-02-14T14:11:25.849Z,20.40
2023-02-14T14:14:21.264Z,20.40
2023-02-14T14:17:00.769Z,20.30
2023-02-14T14:19:27.488Z,20.30
2023-02-14T14:22:07.037Z,20.20
2023-02-14T14:24:39.877Z,20.20
2023-02-14T14:27:15.330Z,20.20
2023-02-14T14:29:49.705Z,20.20
2023-02-14T14:32:27.434Z,20.10
2023-02-14T14:35:00.628Z,20.10
2023-02-14T14:37:33.507Z,20.10
2023-02-14T14:40:04.027Z,20.10
2023-02-14T14:42:39.996Z,20.20
2023-02-14T14:45:23.013Z,20.20
2023-02-14T14:47:54.179Z,20.20
2023-02-14T14:50:33.456Z,20.20
2023-02-14T14:53:09.618Z,20.20
2023-02-14T14:55:37.378Z,20.30
2023-02-14T14:58:10.587Z,20.30
2023-02-14T15:00:42.733Z,20.30
2023-02-14T15:03:12.344Z,20.30
2023-02-14T15:05:43.094Z,20.30
2023-02-14T15:08:32.036Z,20.30
2023-02-14T15:11:10.898Z,20.30
2023-02-14T15:13:49.794Z,20.30
2023-02-14T15:16:41.072Z,20.30
2023-02-14T15:19:11.257Z,20.30
2023-02-14T15:21:44.246Z,20.20
2023-02-14T15:24:14.698Z,20.20
2023-02-14T15:26:44.422Z,20.20
2023-02-14T15:29:40.319Z,20.20
2023-02-14T15:32:10.412Z,20.20
2023-02-14T15:34:37.459Z,20.10
2023-02-14T15:37:06.567Z,20.10
2023-02-14T15:39:42.982Z,20.20
2023-02-14T15:42:29.704Z,20.20
2023-02-14T15:45:16.330Z,20.20
2023-02-14T15:47:46.242Z,20.20
2023-02-14T15:50:16.410Z,20.30
2023-02-14T15:52:43.988Z,20.30
2023-02-14T15:55:12.035Z,20.40
2023-02-14T15:57:38.818Z,20.40
2023-02-14T16:00:11.179Z,20.50
2023-02-14T16:02:41.161Z,20.50
2023-02-14T16:05:26.153Z,20.60
2023-02-14T16:08:35.356Z,20.60
2023-02-14T16:11:26.464Z,20.60
2023-02-14T16:13:54.734Z,20.70
2023-02-14T16:16:21.760Z,20.70
2023-02-14T16:18:52.115Z,20.70
2023-02-14T16:21:27.714Z,20.60
2023-02-14T16:24:06.740Z,20.60
2023-02-14T16:26:39.414Z,20.60
2023-02-14T16:29:11.794Z,20.50
2023-02-14T16:32:15.619Z,20.50
2023-02-14T16:34:43.577Z,20.40
2023-02-14T16:37:28.843Z,20.30
2023-02-14T16:39:57.698Z,20.20
2023-02-14T16:42:24.858Z,20.20
2023-02-14T16:44:52.153Z,20.20
2023-02-14T16:47:20.881Z,20.20
2023-02-14T16:49:47.856Z,20.20
2023-02-14T16:52:25.405Z,20.20
2023-02-14T16:54:52.636Z,20.20
2023-02-14T16:57:45.859Z,20.30
2023-02-14T17:00:13.552Z,20.30
2023-02-14T17:02:42.539Z,20.40
2023-02-14T17:05:10.732Z,20.40
2023-02-14T17:07:39.573Z,20.50
2023-02-14T17:10:11.095Z,20.50
2023-02-14T17:12:42.071Z,20.60
2023-02-14T17:15:15.315Z,20.60
2023-02-14T17:17:42.861Z,20.60
2023-02-14T17:20:10.206Z,20.70
2023-02-14T17:22:37.758Z,20.70
2023-02-14T17:25:05.491Z,20.70
2023-02-14T17:27:32.297Z,20.70
2023-02-14T17:29:59.183Z,20.70
2023-02-14T17:32:25.988Z,20.70
2023-02-14T17:34:53.487Z,20.60
2023-02-14T17:37:20.329Z,20.50
2023-02-14T17:39:47.123Z,20.50
2023-02-14T17:42:14.026Z,20.40
2023-02-14T17:44:40.812Z,20.30
2023-02-14T17:47:07.618Z,20.30
2023-02-14T17:49:34.418Z,20.20
2023-02-14T17:52:01.187Z,20.20
2023-02-14T17:54:27.993Z,20.20
2023-02-14T17:56:55.006Z,20.20
2023-02-14T17:59:21.758Z,20.20
2023-02-14T18:01:48.872Z,20.20
2023-02-14T18:04:15.684Z,20.20
2023-02-14T18:06:43.122Z,20.20
2023-02-14T18:09:10.073Z,20.20
2023-02-14T18:11:40.159Z,20.20
2023-02-14T18:14:07.129Z,20.20
2023-02-14T18:16:36.681Z,20.20
2023-02-14T18:19:05.092Z,20.20
2023-02-14T18:21:37.029Z,20.20
2023-02-14T18:24:04.365Z,20.20
2023-02-14T18:26:31.577Z,20.10
2023-02-14T18:28:58.712Z,20.20
2023-02-14T18:31:26.712Z,20.20
2023-02-14T18:33:53.795Z,20.20
2023-02-14T18:36:24.322Z,20.20
2023-02-14T18:38:51.930Z,20.20
2023-02-14T18:41:20.331Z,20.20
2023-02-14T18:43:48.920Z,20.20
2023-02-14T18:46:22.247Z,20.20
2023-02-14T18:48:50.002Z,20.20
2023-02-14T18:51:28.850Z,20.30
2023-02-14T18:53:57.570Z,20.30
2023-02-14T18:56:31.001Z,20.30
2023-02-14T18:59:03.553Z,20.30
2023-02-14T19:01:33.460Z,20.30
2023-02-14T19:04:01.166Z,20.30
2023-02-14T19:06:31.267Z,20.30
2023-02-14T19:08:58.444Z,20.30
2023-02-14T19:11:28.641Z,20.30
2023-02-14T19:13:57.056Z,20.30
2023-02-14T19:16:29.996Z,20.30
2023-02-14T19:18:57.677Z,20.20
2023-02-14T19:21:27.794Z,20.20
2023-02-14T19:23:58.594Z,20.20
2023-02-14T19:26:29.273Z,20.20
2023-02-14T19:28:59.230Z,20.20
2023-02-14T19:31:26.762Z,20.20
2023-02-14T19:33:54.283Z,20.20
2023-02-14T19:36:22.937Z,20.30
2023-02-14T19:38:52.843Z,20.30
2023-02-14T19:41:25.652Z,20.30
2023-02-14T19:43:55.039Z,20.40
2023-02-14T19:46:22.069Z,20.40
2023-02-14T19:48:49.053Z,20.40
2023-02-14T19:51:26.594Z,20.40
2023-02-14T19:53:54.291Z,20.40
2023-02-14T19:56:23.132Z,20.30
2023-02-14T19:58:51.372Z,20.30
2023-02-14T20:01:31.765Z,20.20
2023-02-14T20:03:58.728Z,20.20
2023-02-14T20:06:27.313Z,20.20
2023-02-14T20:08:54.123Z,20.20
2023-02-14T20:11:40.132Z,20.20
2023-02-14T20:14:08.077Z,20.10
2023-02-14T20:16:36.555Z,20.10
2023-02-14T20:19:07.996Z,20.10
2023-02-14T20:21:35.432Z,20.10
2023-02-14T20:24:03.723Z,20.10
2023-02-14T20:26:32.387Z,20.10
2023-02-14T20:29:01.347Z,20.00
2023-02-14T20:31:28.242Z,20.00
2023-02-14T20:33:56.768Z,19.90
2023-02-14T20:36:24.389Z,19.90
2023-02-14T20:38:58.762Z,19.90
2023-02-14T20:41:27.605Z,19.80
2023-02-14T20:43:55.264Z,19.80
2023-02-14T20:46:22.773Z,19.70
2023-02-14T20:48:50.952Z,19.70
2023-02-14T20:51:20.294Z,19.60
2023-02-14T20:53:47.964Z,19.60
2023-02-14T20:56:15.580Z,19.60
2023-02-14T20:58:43.010Z,19.60
2023-02-14T21:01:16.299Z,19.60
2023-02-14T21:03:50.708Z,19.60
2023-02-14T21:06:18.876Z,19.60
2023-02-14T21:08:46.335Z,19.60
2023-02-14T21:11:15.137Z,19.60
2023-02-14T21:13:41.926Z,19.60
2023-02-14T21:16:17.966Z,19.60
2023-02-14T21:18:48.588Z,19.60
2023-02-14T21:21:20.017Z,19.50
2023-02-14T21:23:49.361Z,19.50
2023-02-14T21:26:17.049Z,19.50
2023-02-14T21:28:44.137Z,19.50
2023-02-14T21:31:13.753Z,19.50
2023-02-14T21:33:40.844Z,19.50
2023-02-14T21:36:08.406Z,19.40
2023-02-14T21:38:37.150Z,19.40
2023-02-14T21:41:06.445Z,19.40
2023-02-14T21:43:34.813Z,19.30
2023-02-14T21:46:05.048Z,19.30
2023-02-14T21:48:51.081Z,19.30
2023-02-14T21:51:18.920Z,19.30
2023-02-14T21:53:46.382Z,19.30
2023-02-14T21:56:17.926Z,19.30
2023-02-14T21:58:45.735Z,19.30
2023-02-14T22:01:21.801Z,19.30
2023-02-14T22:03:49.025Z,19.30
2023-02-14T22:06:16.212Z,19.30
2023-02-14T22:08:43.487Z,19.30
2023-02-14T22:11:13.922Z,19.30
2023-02-14T22:13:41.589Z,19.30
2023-02-14T22:16:10.886Z,19.30
2023-02-14T22:18:38.051Z,19.40
2023-02-14T22:21:11.423Z,19.40
2023-02-14T22:23:38.837Z,19.40
2023-02-14T22:26:22.839Z,19.40
2023-02-14T22:28:50.875Z,19.40
2023-02-14T22:31:18.953Z,19.40
2023-02-14T22:33:47.784Z,19.40
2023-02-14T22:36:15.116Z,19.40
2023-02-14T22:38:42.799Z,19.40
2023-02-14T22:41:14.834Z,19.30
2023-02-14T22:43:42.273Z,19.30
2023-02-14T22:46:15.368Z,19.30
2023-02-14T22:48:42.210Z,19.20
2023-02-14T22:51:20.855Z,19.20
2023-02-14T22:53:47.986Z,19.20
2023-02-14T22:56:21.392Z,19.20
2023-02-14T22:58:48.257Z,19.20
2023-02-14T23:01:17.520Z,19.20
2023-02-14T23:03:45.653Z,19.20
2023-02-14T23:06:13.426Z,19.20
2023-02-14T23:08:42.382Z,19.10
2023-02-14T23:11:11.992Z,19.10
2023-02-14T23:13:57.292Z,19.10
2023-02-14T23:16:43.443Z,19.10
2023-02-14T23:19:34.194Z,19.10
2023-02-14T23:22:08.414Z,19.10
2023-02-14T23:24:35.271Z,19.10
2023-02-14T23:27:02.922Z,19.10
2023-02-14T23:29:30.133Z,19.10
2023-02-14T23:31:57.103Z,19.10
2023-02-14T23:34:28.162Z,19.10
2023-02-14T23:36:55.337Z,19.10
2023-02-14T23:39:22.379Z,19.00
2023-02-14T23:41:49.810Z,19.00
2023-02-14T23:44:25.213Z,19.00
2023-02-14T23:46:54.468Z,18.90
2023-02-14T23:49:22.559Z,18.90
2023-02-14T23:51:51.005Z,18.90
2023-02-14T23:54:19.285Z,18.90
2023-02-14T23:56:46.202Z,18.90
2023-02-14T23:59:14.606Z,18.90
